Time;durP1;ratioP1;P1;durP2;ratioP2;P2;SDS_P1;SDS_P2;PMS_P1;PMS_P2;Temp;Humidity;BMP_temperature;BMP_pressure;BME280_temperature;BME280_humidity;BME280_pressure;Samples;Min_cycle;Max_cycle;Signal;HPM_P1;HPM_P2
2023/12/31 00:00:31;;;;;;;39.20;31.58;;;;;;;;;;4958457;28;20502;-67
2023/12/31 00:02:56;;;;;;;44.45;33.75;;;;;;;;;;4967617;28;20061;-69
2023/12/31 00:05:22;;;;;;;41.25;36.50;;;;;;;;;;4951155;28;20038;-66
2023/12/31 00:07:47;;;;;;;45.30;37.95;;;;;;;;;;4967706;28;20062;-65
2023/12/31 00:10:12;;;;;;;47.05;36.10;;;;;;;;;;4971659;28;20054;-70
2023/12/31 00:12:38;;;;;;;102.22;75.65;;;;;;;;;;4967952;28;20034;-67
2023/12/31 00:15:04;;;;;;;50.20;37.35;;;;;;;;;;4968645;28;20446;-63
2023/12/31 00:17:29;;;;;;;41.92;31.75;;;;;;;;;;4970205;28;20105;-64
2023/12/31 00:19:55;;;;;;;54.70;44.78;;;;;;;;;;4971927;28;20431;-64
2023/12/31 00:22:20;;;;;;;66.43;50.78;;;;;;;;;;4968231;28;20030;-64
2023/12/31 00:24:45;;;;;;;58.88;42.47;;;;;;;;;;4967769;28;20335;-63
2023/12/31 00:27:11;;;;;;;39.53;33.50;;;;;;;;;;4968304;28;20419;-65
2023/12/31 00:29:36;;;;;;;40.53;32.17;;;;;;;;;;4966512;28;21154;-67
2023/12/31 00:32:01;;;;;;;102.47;81.97;;;;;;;;;;4970113;28;21274;-69
2023/12/31 00:34:27;;;;;;;77.40;62.30;;;;;;;;;;4966387;28;20054;-64
2023/12/31 00:36:52;;;;;;;78.90;60.15;;;;;;;;;;4965720;28;20113;-63
2023/12/31 00:39:17;;;;;;;71.85;59.40;;;;;;;;;;4970821;28;20061;-66
2023/12/31 00:41:43;;;;;;;66.55;55.67;;;;;;;;;;4956401;28;20059;-65
2023/12/31 00:44:08;;;;;;;57.53;47.45;;;;;;;;;;4957563;28;20126;-66
2023/12/31 00:46:33;;;;;;;49.20;40.67;;;;;;;;;;4967258;28;20044;-64
2023/12/31 00:48:59;;;;;;;42.30;36.55;;;;;;;;;;4968166;28;20117;-66
2023/12/31 00:51:24;;;;;;;46.75;38.92;;;;;;;;;;4969860;28;20120;-64
2023/12/31 00:53:49;;;;;;;48.95;42.17;;;;;;;;;;4968839;28;20439;-69
2023/12/31 00:56:15;;;;;;;68.53;54.92;;;;;;;;;;4968635;28;20351;-66
2023/12/31 00:58:40;;;;;;;55.75;45.72;;;;;;;;;;4953332;28;20350;-65
2023/12/31 01:01:05;;;;;;;48.95;39.63;;;;;;;;;;4957686;28;20038;-69
2023/12/31 01:03:33;;;;;;;114.53;85.40;;;;;;;;;;4969063;28;20031;-66
2023/12/31 01:06:07;;;;;;;143.77;112.22;;;;;;;;;;4966596;28;20043;-64
2023/12/31 01:08:32;;;;;;;158.85;122.03;;;;;;;;;;4966916;28;20027;-68
2023/12/31 01:10:58;;;;;;;92.15;69.10;;;;;;;;;;4950730;28;20135;-63
2023/12/31 01:13:24;;;;;;;82.78;63.00;;;;;;;;;;4952395;28;20039;-65
2023/12/31 01:15:49;;;;;;;78.45;58.17;;;;;;;;;;4949423;28;20481;-66
2023/12/31 01:18:14;;;;;;;76.93;57.15;;;;;;;;;;4943779;28;20430;-64
2023/12/31 01:20:40;;;;;;;83.53;67.82;;;;;;;;;;4949577;28;20027;-65
2023/12/31 01:23:05;;;;;;;85.40;70.82;;;;;;;;;;4950774;28;20035;-64
2023/12/31 01:25:30;;;;;;;52.58;44.45;;;;;;;;;;4953298;28;20031;-69
2023/12/31 01:27:56;;;;;;;50.72;44.20;;;;;;;;;;4951097;28;20343;-64
2023/12/31 01:30:22;;;;;;;44.83;37.30;;;;;;;;;;4947466;28;20355;-67
2023/12/31 01:32:48;;;;;;;40.70;36.03;;;;;;;;;;4952629;28;20042;-64
2023/12/31 01:35:13;;;;;;;33.45;29.77;;;;;;;;;;4950537;28;20034;-65
2023/12/31 01:37:39;;;;;;;31.55;27.25;;;;;;;;;;4949160;28;20047;-64
2023/12/31 01:40:06;;;;;;;39.28;33.45;;;;;;;;;;4940549;28;20086;-66
2023/12/31 01:42:31;;;;;;;56.55;45.95;;;;;;;;;;4947484;28;20038;-68
2023/12/31 01:44:57;;;;;;;49.75;41.63;;;;;;;;;;4940546;28;20050;-68
2023/12/31 01:47:22;;;;;;;44.97;38.70;;;;;;;;;;4945184;28;23076;-66
2023/12/31 01:49:48;;;;;;;62.83;52.47;;;;;;;;;;4943377;28;20082;-65
2023/12/31 01:52:14;;;;;;;88.75;79.13;;;;;;;;;;4950459;28;20031;-64
2023/12/31 01:54:40;;;;;;;67.72;57.15;;;;;;;;;;4941165;28;20046;-68
2023/12/31 01:57:06;;;;;;;65.70;56.33;;;;;;;;;;4958146;28;20042;-63
2023/12/31 01:59:31;;;;;;;65.78;57.83;;;;;;;;;;4951258;28;20600;-64
2023/12/31 02:01:57;;;;;;;87.03;74.38;;;;;;;;;;4952332;28;20921;-66
2023/12/31 02:04:22;;;;;;;77.82;66.50;;;;;;;;;;4952689;28;20031;-65
2023/12/31 02:06:47;;;;;;;67.78;57.35;;;;;;;;;;4953979;28;20045;-63
2023/12/31 02:09:14;;;;;;;81.32;68.07;;;;;;;;;;4957861;28;20043;-64
2023/12/31 02:11:40;;;;;;;97.50;77.57;;;;;;;;;;4969039;28;20031;-65
2023/12/31 02:14:05;;;;;;;132.00;98.40;;;;;;;;;;4962660;28;20347;-64
2023/12/31 02:16:30;;;;;;;149.35;114.03;;;;;;;;;;4967047;28;20026;-68
2023/12/31 02:18:56;;;;;;;134.05;104.00;;;;;;;;;;4969178;28;20035;-65
2023/12/31 02:21:21;;;;;;;151.60;125.53;;;;;;;;;;4968363;28;20026;-65
2023/12/31 02:23:47;;;;;;;106.78;87.45;;;;;;;;;;4970458;28;20512;-66
2023/12/31 02:26:12;;;;;;;96.78;76.75;;;;;;;;;;4964520;28;20112;-63
2023/12/31 02:28:38;;;;;;;107.10;87.70;;;;;;;;;;4964042;28;20097;-64
2023/12/31 02:31:04;;;;;;;105.68;84.95;;;;;;;;;;4970358;28;20049;-65
2023/12/31 02:33:29;;;;;;;91.72;78.22;;;;;;;;;;4969017;28;20768;-70
2023/12/31 02:35:55;;;;;;;88.57;73.13;;;;;;;;;;4971363;28;20183;-65
2023/12/31 02:38:20;;;;;;;92.05;65.30;;;;;;;;;;4969459;28;20110;-69
2023/12/31 02:40:45;;;;;;;93.07;63.17;;;;;;;;;;4960479;28;20101;-66
2023/12/31 02:43:11;;;;;;;83.88;61.15;;;;;;;;;;4964282;28;20438;-63
2023/12/31 02:45:36;;;;;;;92.30;73.63;;;;;;;;;;4968619;28;20328;-65
2023/12/31 02:48:02;;;;;;;114.13;89.45;;;;;;;;;;4969298;28;20085;-64
2023/12/31 02:50:27;;;;;;;110.18;87.78;;;;;;;;;;4970484;28;20041;-65
2023/12/31 02:52:53;;;;;;;108.90;77.82;;;;;;;;;;4970196;28;20441;-63
2023/12/31 02:55:19;;;;;;;114.63;82.93;;;;;;;;;;4969960;28;20034;-67
2023/12/31 02:57:44;;;;;;;127.40;93.47;;;;;;;;;;4969840;28;20069;-70
2023/12/31 03:00:10;;;;;;;146.38;116.68;;;;;;;;;;4969916;28;20049;-69
2023/12/31 03:02:35;;;;;;;220.13;169.88;;;;;;;;;;4969364;28;20049;-64
2023/12/31 03:05:01;;;;;;;224.98;176.00;;;;;;;;;;4967225;28;20466;-63
2023/12/31 03:07:26;;;;;;;180.27;141.07;;;;;;;;;;4967485;28;20108;-64
2023/12/31 03:09:52;;;;;;;159.15;122.95;;;;;;;;;;4970302;28;20070;-65
2023/12/31 03:12:18;;;;;;;158.30;128.10;;;;;;;;;;4970486;28;20081;-71
2023/12/31 03:14:44;;;;;;;152.70;116.28;;;;;;;;;;4967114;28;20348;-66
2023/12/31 03:17:09;;;;;;;122.20;100.68;;;;;;;;;;4955916;28;20137;-65
2023/12/31 03:19:35;;;;;;;104.65;84.00;;;;;;;;;;4967677;28;20070;-70
2023/12/31 03:22:01;;;;;;;86.32;63.80;;;;;;;;;;4968653;28;20117;-63
2023/12/31 03:24:27;;;;;;;74.47;57.90;;;;;;;;;;4962345;28;20117;-63
2023/12/31 03:26:52;;;;;;;71.80;54.17;;;;;;;;;;4968033;28;20382;-64
2023/12/31 03:29:18;;;;;;;75.50;57.03;;;;;;;;;;4973924;28;20042;-70
2023/12/31 03:31:43;;;;;;;96.70;72.10;;;;;;;;;;4971457;28;20035;-64
2023/12/31 03:34:08;;;;;;;109.15;77.53;;;;;;;;;;4958261;28;20427;-72
2023/12/31 03:36:34;;;;;;;219.82;146.52;;;;;;;;;;4970343;28;20031;-66
2023/12/31 03:38:59;;;;;;;168.40;120.22;;;;;;;;;;4969113;28;20034;-65
2023/12/31 03:41:25;;;;;;;111.53;84.90;;;;;;;;;;4970506;28;20366;-64
2023/12/31 03:43:50;;;;;;;116.78;81.68;;;;;;;;;;4968991;28;20042;-65
2023/12/31 03:46:16;;;;;;;97.45;65.95;;;;;;;;;;4968561;28;20034;-64
2023/12/31 03:48:42;;;;;;;88.68;60.95;;;;;;;;;;4955968;28;20034;-67
2023/12/31 03:51:07;;;;;;;94.93;70.80;;;;;;;;;;4968979;28;20034;-65
2023/12/31 03:53:33;;;;;;;61.95;45.90;;;;;;;;;;4968152;28;20133;-65
2023/12/31 03:55:58;;;;;;;52.45;41.28;;;;;;;;;;4968140;28;20030;-63
2023/12/31 03:58:23;;;;;;;46.80;38.17;;;;;;;;;;4965327;28;20030;-68
2023/12/31 04:00:49;;;;;;;41.08;35.13;;;;;;;;;;4967088;28;20048;-63
2023/12/31 04:03:14;;;;;;;40.65;33.97;;;;;;;;;;4967466;28;20133;-65
2023/12/31 04:05:39;;;;;;;47.95;42.72;;;;;;;;;;4969355;28;20034;-63
2023/12/31 04:08:05;;;;;;;41.60;35.47;;;;;;;;;;4967349;28;20026;-67
2023/12/31 04:10:30;;;;;;;44.25;38.35;;;;;;;;;;4967099;28;20109;-63
2023/12/31 04:12:56;;;;;;;69.63;60.65;;;;;;;;;;4965062;28;20104;-65
2023/12/31 04:15:21;;;;;;;55.35;45.28;;;;;;;;;;4958538;28;20026;-70
2023/12/31 04:17:47;;;;;;;43.75;38.45;;;;;;;;;;4970181;28;20034;-66
2023/12/31 04:20:12;;;;;;;41.80;37.20;;;;;;;;;;4968506;28;20026;-64
2023/12/31 04:22:37;;;;;;;53.58;45.22;;;;;;;;;;4968438;28;20557;-68
2023/12/31 04:25:03;;;;;;;37.20;33.38;;;;;;;;;;4967113;28;20461;-63
2023/12/31 04:27:31;;;;;;;46.97;41.88;;;;;;;;;;4969930;28;20022;-63
2023/12/31 04:29:56;;;;;;;50.03;41.15;;;;;;;;;;4968550;28;20370;-64
2023/12/31 04:32:22;;;;;;;50.03;43.92;;;;;;;;;;4969563;28;20694;-67
2023/12/31 04:34:47;;;;;;;49.10;43.47;;;;;;;;;;4966092;28;20467;-65
2023/12/31 04:37:12;;;;;;;66.13;54.50;;;;;;;;;;4954372;28;21353;-67
2023/12/31 04:39:39;;;;;;;78.35;62.15;;;;;;;;;;4972969;28;20101;-63
2023/12/31 04:42:05;;;;;;;74.32;61.60;;;;;;;;;;4967873;28;20217;-63
2023/12/31 04:44:30;;;;;;;59.83;49.28;;;;;;;;;;4968756;28;20018;-70
2023/12/31 04:46:55;;;;;;;62.22;52.67;;;;;;;;;;4953951;28;20042;-69
2023/12/31 04:49:21;;;;;;;67.07;49.65;;;;;;;;;;4969127;28;20130;-66
2023/12/31 04:51:46;;;;;;;64.43;54.28;;;;;;;;;;4968387;28;20137;-65
2023/12/31 04:54:11;;;;;;;64.60;57.50;;;;;;;;;;4962155;28;20052;-67
2023/12/31 04:56:38;;;;;;;68.15;57.13;;;;;;;;;;4961917;28;20034;-66
2023/12/31 04:59:03;;;;;;;72.13;61.58;;;;;;;;;;4970103;28;20050;-65
2023/12/31 05:01:32;;;;;;;72.97;61.55;;;;;;;;;;4963154;28;20068;-64
2023/12/31 05:03:57;;;;;;;66.45;56.35;;;;;;;;;;4953565;28;21280;-65
2023/12/31 05:06:22;;;;;;;60.38;52.47;;;;;;;;;;4953376;28;20093;-62
2023/12/31 05:08:48;;;;;;;54.28;46.78;;;;;;;;;;4954805;28;20439;-63
2023/12/31 05:11:13;;;;;;;93.10;72.03;;;;;;;;;;4951746;28;20358;-62
2023/12/31 05:13:39;;;;;;;135.88;109.20;;;;;;;;;;4952648;28;20033;-64
2023/12/31 05:16:05;;;;;;;115.90;94.30;;;;;;;;;;4953240;28;20029;-65
2023/12/31 05:18:31;;;;;;;111.45;89.00;;;;;;;;;;4956834;28;20439;-63
2023/12/31 05:20:56;;;;;;;106.95;92.45;;;;;;;;;;4957413;28;20027;-71
2023/12/31 05:23:22;;;;;;;119.25;102.30;;;;;;;;;;4956887;28;20092;-66
2023/12/31 05:25:49;;;;;;;141.75;108.30;;;;;;;;;;4966099;28;20042;-67
2023/12/31 05:28:14;;;;;;;118.97;102.05;;;;;;;;;;4973427;28;20022;-67
2023/12/31 05:30:41;;;;;;;125.03;103.95;;;;;;;;;;4967408;28;20104;-66
2023/12/31 05:33:07;;;;;;;115.35;101.68;;;;;;;;;;4960025;28;20037;-66
2023/12/31 05:35:32;;;;;;;91.57;81.45;;;;;;;;;;4970164;28;20031;-66
2023/12/31 05:37:57;;;;;;;144.45;123.53;;;;;;;;;;4970855;28;20058;-65
2023/12/31 05:40:23;;;;;;;164.93;138.88;;;;;;;;;;4971139;28;20447;-64
2023/12/31 05:42:48;;;;;;;84.47;75.25;;;;;;;;;;4968764;28;20098;-63
2023/12/31 05:45:14;;;;;;;68.40;59.25;;;;;;;;;;4970365;28;20021;-64
2023/12/31 05:47:39;;;;;;;92.28;82.00;;;;;;;;;;4965107;28;20035;-66
2023/12/31 05:50:04;;;;;;;90.50;80.40;;;;;;;;;;4967650;28;20031;-65
2023/12/31 05:52:30;;;;;;;78.22;69.65;;;;;;;;;;4972392;28;20039;-63
2023/12/31 05:54:55;;;;;;;94.22;84.03;;;;;;;;;;4961817;28;20121;-69
2023/12/31 05:57:20;;;;;;;94.80;82.15;;;;;;;;;;4972790;28;20477;-65
2023/12/31 05:59:46;;;;;;;106.70;95.20;;;;;;;;;;4969601;28;20026;-65
2023/12/31 06:02:11;;;;;;;104.63;90.82;;;;;;;;;;4970938;28;20061;-64
2023/12/31 06:04:36;;;;;;;123.55;106.28;;;;;;;;;;4971361;28;20493;-63
2023/12/31 06:07:02;;;;;;;184.07;154.18;;;;;;;;;;4973517;28;20037;-65
2023/12/31 06:09:27;;;;;;;212.05;189.00;;;;;;;;;;4959910;28;20054;-65
2023/12/31 06:11:53;;;;;;;183.35;154.27;;;;;;;;;;4971637;28;20039;-64
2023/12/31 06:14:18;;;;;;;267.55;214.73;;;;;;;;;;4962907;28;20069;-64
2023/12/31 06:16:43;;;;;;;458.30;310.92;;;;;;;;;;4957227;28;20062;-68
2023/12/31 06:19:09;;;;;;;544.33;402.70;;;;;;;;;;4970670;28;20023;-64
2023/12/31 06:21:34;;;;;;;377.17;274.25;;;;;;;;;;4957715;28;20089;-70
2023/12/31 06:23:59;;;;;;;163.32;137.20;;;;;;;;;;4957512;28;20045;-66
2023/12/31 06:26:25;;;;;;;195.57;162.50;;;;;;;;;;4963489;28;20035;-64
2023/12/31 06:28:50;;;;;;;157.35;137.60;;;;;;;;;;4963550;28;20030;-64
2023/12/31 06:31:15;;;;;;;190.68;163.93;;;;;;;;;;4962216;28;20065;-62
2023/12/31 06:33:41;;;;;;;152.93;132.88;;;;;;;;;;4963604;28;20058;-63
2023/12/31 06:36:06;;;;;;;176.23;155.15;;;;;;;;;;4962990;28;20442;-64
2023/12/31 06:38:31;;;;;;;159.68;141.02;;;;;;;;;;4965482;28;20023;-66
2023/12/31 06:40:57;;;;;;;380.13;310.13;;;;;;;;;;4966086;28;20114;-65
2023/12/31 06:43:22;;;;;;;680.30;550.25;;;;;;;;;;4969303;28;20049;-71
2023/12/31 06:45:47;;;;;;;369.77;291.63;;;;;;;;;;4968184;28;20342;-68
2023/12/31 06:48:13;;;;;;;131.00;116.70;;;;;;;;;;4966956;28;20031;-63
2023/12/31 06:50:38;;;;;;;169.95;142.82;;;;;;;;;;4967454;28;20064;-70
2023/12/31 06:53:03;;;;;;;210.85;168.13;;;;;;;;;;4950128;28;20129;-66
2023/12/31 06:55:29;;;;;;;171.00;142.05;;;;;;;;;;4967483;28;20038;-64
2023/12/31 06:57:54;;;;;;;325.40;274.67;;;;;;;;;;4966246;28;20477;-68
2023/12/31 07:00:22;;;;;;;786.47;606.78;;;;;;;;;;4966333;28;20022;-64
2023/12/31 07:02:47;;;;;;;459.38;395.92;;;;;;;;;;4948101;28;20053;-64
2023/12/31 07:05:12;;;;;;;312.67;270.52;;;;;;;;;;4966855;28;21125;-67
2023/12/31 07:07:38;;;;;;;210.68;187.57;;;;;;;;;;4965716;28;20109;-65
2023/12/31 07:10:03;;;;;;;174.02;147.25;;;;;;;;;;4963929;28;20054;-65
2023/12/31 07:12:29;;;;;;;156.73;139.65;;;;;;;;;;4966230;28;20054;-67
2023/12/31 07:14:54;;;;;;;239.15;197.27;;;;;;;;;;4953136;28;20042;-67
2023/12/31 07:17:19;;;;;;;211.60;188.32;;;;;;;;;;4956187;28;20034;-63
2023/12/31 07:19:45;;;;;;;231.55;207.73;;;;;;;;;;4962166;28;20030;-64
2023/12/31 07:22:10;;;;;;;117.55;104.50;;;;;;;;;;4955222;28;20108;-67
2023/12/31 07:24:36;;;;;;;136.35;120.72;;;;;;;;;;4960920;28;20053;-69
2023/12/31 07:27:01;;;;;;;100.78;89.93;;;;;;;;;;4968727;28;20037;-71
2023/12/31 07:29:26;;;;;;;83.15;74.18;;;;;;;;;;4975040;28;20022;-67
2023/12/31 07:31:52;;;;;;;63.47;56.95;;;;;;;;;;4978275;28;20489;-64
2023/12/31 07:34:17;;;;;;;55.80;49.78;;;;;;;;;;4976564;28;20495;-63
2023/12/31 07:36:43;;;;;;;89.75;79.97;;;;;;;;;;4968949;28;20030;-67
2023/12/31 07:39:08;;;;;;;80.93;71.47;;;;;;;;;;4968306;28;20084;-63
2023/12/31 07:41:34;;;;;;;218.27;179.32;;;;;;;;;;4965897;28;20041;-65
2023/12/31 07:44:00;;;;;;;81.68;72.80;;;;;;;;;;4963378;28;20061;-69
2023/12/31 07:46:25;;;;;;;65.43;58.53;;;;;;;;;;4964940;28;20434;-65
2023/12/31 07:48:52;;;;;;;68.95;61.63;;;;;;;;;;4976727;28;20037;-64
2023/12/31 07:51:18;;;;;;;75.57;67.30;;;;;;;;;;4981824;28;20441;-65
2023/12/31 07:53:43;;;;;;;95.90;85.45;;;;;;;;;;4979550;28;20426;-65
2023/12/31 07:56:09;;;;;;;84.65;75.70;;;;;;;;;;4980634;28;20109;-66
2023/12/31 07:58:34;;;;;;;78.78;70.50;;;;;;;;;;4973271;28;20029;-64
2023/12/31 08:01:02;;;;;;;61.50;53.80;;;;;;;;;;4966331;28;20038;-66
2023/12/31 08:03:28;;;;;;;59.58;53.22;;;;;;;;;;4953791;28;20066;-67
2023/12/31 08:05:53;;;;;;;97.30;87.40;;;;;;;;;;4953451;28;20111;-65
2023/12/31 08:08:19;;;;;;;58.15;51.85;;;;;;;;;;4953625;28;20335;-64
2023/12/31 08:10:44;;;;;;;78.10;70.28;;;;;;;;;;4978567;28;20489;-64
2023/12/31 08:13:10;;;;;;;106.28;77.38;;;;;;;;;;4982258;28;20409;-66
2023/12/31 08:15:35;;;;;;;134.05;110.40;;;;;;;;;;5000047;28;20022;-64
2023/12/31 08:18:02;;;;;;;133.15;111.57;;;;;;;;;;4991000;28;20033;-68
2023/12/31 08:20:28;;;;;;;156.02;140.00;;;;;;;;;;4973203;28;20033;-69
2023/12/31 08:22:53;;;;;;;60.53;53.95;;;;;;;;;;4986968;28;20044;-69
2023/12/31 08:25:19;;;;;;;58.92;52.97;;;;;;;;;;4986337;28;20036;-64
2023/12/31 08:27:44;;;;;;;55.08;49.50;;;;;;;;;;4988273;28;20113;-65
2023/12/31 08:30:10;;;;;;;32.47;29.20;;;;;;;;;;4997453;28;20100;-65
2023/12/31 08:32:35;;;;;;;29.80;26.90;;;;;;;;;;4987854;28;20034;-64
2023/12/31 08:35:01;;;;;;;34.60;30.92;;;;;;;;;;4986283;28;20025;-65
2023/12/31 08:37:26;;;;;;;34.25;30.77;;;;;;;;;;4987014;28;20453;-69
2023/12/31 08:39:51;;;;;;;34.03;30.75;;;;;;;;;;4996484;28;20076;-66
2023/12/31 08:42:17;;;;;;;39.58;35.78;;;;;;;;;;4999706;28;20036;-65
2023/12/31 08:44:43;;;;;;;31.33;28.25;;;;;;;;;;4994663;28;20505;-69
2023/12/31 08:47:09;;;;;;;34.58;31.25;;;;;;;;;;4988706;28;20030;-64
2023/12/31 08:49:34;;;;;;;39.20;35.17;;;;;;;;;;4986406;28;20479;-66
2023/12/31 08:52:00;;;;;;;37.53;34.05;;;;;;;;;;4985732;28;20069;-67
2023/12/31 08:54:25;;;;;;;35.28;31.67;;;;;;;;;;4986622;28;20038;-67
2023/12/31 08:56:51;;;;;;;48.70;41.88;;;;;;;;;;4986339;28;20014;-68
2023/12/31 08:59:17;;;;;;;52.47;47.28;;;;;;;;;;4996237;28;20036;-67
2023/12/31 09:01:42;;;;;;;46.30;41.67;;;;;;;;;;4999478;28;20108;-70
2023/12/31 09:04:09;;;;;;;36.80;33.30;;;;;;;;;;5002880;28;20034;-68
2023/12/31 09:06:34;;;;;;;37.50;33.85;;;;;;;;;;5002379;28;20033;-67
2023/12/31 09:08:59;;;;;;;33.95;30.90;;;;;;;;;;4990433;28;20480;-68
2023/12/31 09:11:25;;;;;;;37.42;33.85;;;;;;;;;;4992427;28;20018;-67
2023/12/31 09:13:50;;;;;;;25.20;22.50;;;;;;;;;;5003358;28;20076;-72
2023/12/31 09:16:15;;;;;;;30.13;27.13;;;;;;;;;;5003515;28;20904;-69
2023/12/31 09:18:41;;;;;;;27.10;24.38;;;;;;;;;;5002875;28;20033;-68
2023/12/31 09:21:06;;;;;;;29.48;26.42;;;;;;;;;;4992602;28;20074;-69
2023/12/31 09:23:31;;;;;;;32.83;29.27;;;;;;;;;;4996122;28;20029;-68
2023/12/31 09:25:57;;;;;;;28.15;25.35;;;;;;;;;;4973584;28;20037;-67
2023/12/31 09:28:22;;;;;;;29.95;26.85;;;;;;;;;;4990556;28;20464;-66
2023/12/31 09:30:47;;;;;;;31.30;28.02;;;;;;;;;;4990222;28;20540;-70
2023/12/31 09:33:13;;;;;;;31.77;28.77;;;;;;;;;;4990653;28;20034;-65
2023/12/31 09:35:38;;;;;;;26.73;24.13;;;;;;;;;;4989434;28;20026;-66
2023/12/31 09:38:03;;;;;;;27.85;24.85;;;;;;;;;;4990867;28;20026;-66
2023/12/31 09:40:29;;;;;;;76.45;59.20;;;;;;;;;;4973736;28;20021;-67
2023/12/31 09:42:54;;;;;;;156.32;99.38;;;;;;;;;;4990449;28;21194;-67
2023/12/31 09:45:24;;;;;;;58.15;48.63;;;;;;;;;;4995630;28;20030;-67
2023/12/31 09:47:50;;;;;;;31.15;28.00;;;;;;;;;;4987069;28;20121;-71
2023/12/31 09:50:19;;;;;;;32.92;29.63;;;;;;;;;;4989532;28;20326;-69
2023/12/31 09:52:47;;;;;;;20.95;18.83;;;;;;;;;;4989149;28;20025;-69
2023/12/31 09:55:13;;;;;;;26.15;23.05;;;;;;;;;;4999754;28;20041;-66
2023/12/31 09:57:40;;;;;;;36.15;32.65;;;;;;;;;;5000610;28;20041;-68
2023/12/31 10:00:06;;;;;;;26.80;24.17;;;;;;;;;;4979333;28;20041;-67
2023/12/31 10:02:31;;;;;;;18.70;16.90;;;;;;;;;;4996442;28;20037;-66
2023/12/31 10:04:57;;;;;;;30.85;27.63;;;;;;;;;;4999968;28;20030;-69
2023/12/31 10:07:23;;;;;;;28.33;25.52;;;;;;;;;;5002774;28;20037;-64
2023/12/31 10:09:49;;;;;;;22.40;20.23;;;;;;;;;;4999247;28;20050;-65
2023/12/31 10:12:15;;;;;;;23.38;20.98;;;;;;;;;;4991709;28;20037;-66
2023/12/31 10:14:40;;;;;;;15.38;13.77;;;;;;;;;;4989552;28;20033;-69
2023/12/31 10:17:06;;;;;;;18.60;16.63;;;;;;;;;;4992855;28;20351;-66
2023/12/31 10:19:31;;;;;;;21.08;18.90;;;;;;;;;;5001048;28;20125;-70
2023/12/31 10:21:57;;;;;;;17.17;15.40;;;;;;;;;;4998818;28;20549;-66
2023/12/31 10:24:29;;;;;;;20.15;18.05;;;;;;;;;;4991419;28;20046;-69
2023/12/31 10:27:00;;;;;;;19.33;17.52;;;;;;;;;;4993889;28;20034;-66
2023/12/31 10:29:26;;;;;;;15.88;14.35;;;;;;;;;;4993527;28;20041;-68
2023/12/31 10:31:51;;;;;;;16.08;14.43;;;;;;;;;;4996705;28;20030;-71
2023/12/31 10:34:17;;;;;;;14.35;12.95;;;;;;;;;;4997754;28;20041;-68
2023/12/31 10:36:46;;;;;;;17.08;15.10;;;;;;;;;;4996139;28;20152;-71
2023/12/31 10:39:25;;;;;;;17.70;16.00;;;;;;;;;;4986792;28;20029;-69
2023/12/31 10:41:53;;;;;;;24.05;21.15;;;;;;;;;;4988600;28;20029;-71
2023/12/31 10:44:19;;;;;;;14.95;12.80;;;;;;;;;;4997293;28;20041;-68
2023/12/31 10:46:45;;;;;;;44.22;37.53;;;;;;;;;;5003069;28;20025;-73
2023/12/31 10:49:11;;;;;;;19.65;17.30;;;;;;;;;;5003405;28;20744;-71
2023/12/31 10:51:39;;;;;;;44.47;40.05;;;;;;;;;;5002781;28;20584;-71
2023/12/31 10:54:05;;;;;;;32.40;29.02;;;;;;;;;;5002770;28;20038;-71
2023/12/31 10:56:31;;;;;;;37.33;32.00;;;;;;;;;;5001917;28;20103;-70
2023/12/31 10:58:58;;;;;;;20.33;18.17;;;;;;;;;;5002257;28;20446;-69
2023/12/31 11:01:24;;;;;;;20.92;18.95;;;;;;;;;;5002018;28;20025;-70
2023/12/31 11:03:50;;;;;;;14.68;13.23;;;;;;;;;;4995215;28;20172;-68
2023/12/31 11:06:16;;;;;;;15.77;12.88;;;;;;;;;;4992601;28;20162;-69
2023/12/31 11:08:43;;;;;;;13.02;11.73;;;;;;;;;;5001475;28;21124;-68
2023/12/31 11:11:08;;;;;;;25.00;20.88;;;;;;;;;;4991042;28;20076;-67
2023/12/31 11:13:36;;;;;;;43.33;38.65;;;;;;;;;;5001709;28;20068;-67
2023/12/31 11:16:03;;;;;;;22.33;20.00;;;;;;;;;;4996775;28;20018;-68
2023/12/31 11:18:46;;;;;;;19.98;17.95;;;;;;;;;;4993737;28;20552;-70
2023/12/31 11:21:19;;;;;;;11.95;10.60;;;;;;;;;;4993516;28;20072;-68
2023/12/31 11:23:45;;;;;;;24.48;20.63;;;;;;;;;;5001423;28;20117;-72
2023/12/31 11:26:11;;;;;;;22.60;19.88;;;;;;;;;;4999255;28;20121;-69
2023/12/31 11:28:36;;;;;;;23.10;20.63;;;;;;;;;;5001831;28;20034;-70
2023/12/31 11:31:08;;;;;;;16.95;14.90;;;;;;;;;;5000885;28;20018;-69
2023/12/31 11:33:34;;;;;;;42.92;16.27;;;;;;;;;;4991517;28;20428;-69
2023/12/31 11:36:05;;;;;;;21.38;19.25;;;;;;;;;;4986155;28;20042;-71
2023/12/31 11:38:49;;;;;;;17.02;15.30;;;;;;;;;;4993747;28;20386;-69
2023/12/31 11:41:14;;;;;;;14.07;9.98;;;;;;;;;;4997473;28;20026;-70
2023/12/31 11:43:40;;;;;;;16.35;13.65;;;;;;;;;;4990093;28;20032;-69
2023/12/31 11:46:05;;;;;;;12.40;11.18;;;;;;;;;;4988151;28;20064;-70
2023/12/31 11:48:31;;;;;;;10.73;9.18;;;;;;;;;;4997379;28;20080;-70
2023/12/31 11:51:01;;;;;;;16.13;14.63;;;;;;;;;;4986749;28;20112;-70
2023/12/31 11:53:27;;;;;;;48.25;43.58;;;;;;;;;;4970523;28;20461;-68
2023/12/31 11:55:54;;;;;;;34.00;30.67;;;;;;;;;;4988391;28;20660;-69
2023/12/31 11:58:21;;;;;;;26.73;24.02;;;;;;;;;;4985522;28;20150;-68
2023/12/31 12:00:46;;;;;;;36.70;32.72;;;;;;;;;;4987040;28;20034;-69
2023/12/31 12:03:14;;;;;;;35.92;32.22;;;;;;;;;;4994554;28;20064;-69
2023/12/31 12:05:39;;;;;;;13.60;12.18;;;;;;;;;;4995699;28;20037;-70
2023/12/31 12:08:07;;;;;;;12.90;11.48;;;;;;;;;;4985583;28;20029;-69
2023/12/31 12:10:33;;;;;;;12.85;11.48;;;;;;;;;;4992918;28;20050;-70
2023/12/31 12:13:00;;;;;;;13.55;10.68;;;;;;;;;;4997658;28;20029;-68
2023/12/31 12:15:25;;;;;;;12.30;10.63;;;;;;;;;;4991587;28;20045;-69
2023/12/31 12:17:50;;;;;;;10.85;9.45;;;;;;;;;;4997770;28;20410;-68
2023/12/31 12:20:16;;;;;;;11.23;9.70;;;;;;;;;;4998379;28;20468;-70
2023/12/31 12:22:41;;;;;;;11.32;10.13;;;;;;;;;;4999361;28;20211;-69
2023/12/31 12:25:07;;;;;;;12.55;11.32;;;;;;;;;;4998734;28;20433;-70
2023/12/31 12:27:35;;;;;;;11.77;10.43;;;;;;;;;;4998339;28;20033;-69
2023/12/31 12:30:01;;;;;;;10.60;8.52;;;;;;;;;;4999943;28;20028;-70
2023/12/31 12:32:26;;;;;;;13.75;12.10;;;;;;;;;;5000194;28;20030;-68
2023/12/31 12:34:51;;;;;;;22.63;19.88;;;;;;;;;;5000284;28;20036;-69
2023/12/31 12:37:17;;;;;;;21.45;17.20;;;;;;;;;;4997677;28;21317;-70
2023/12/31 12:39:42;;;;;;;31.48;25.77;;;;;;;;;;5000010;28;20030;-70
2023/12/31 12:42:09;;;;;;;17.00;15.20;;;;;;;;;;4999594;28;20026;-68
2023/12/31 12:44:35;;;;;;;17.67;14.80;;;;;;;;;;5000436;28;20033;-69
2023/12/31 12:47:01;;;;;;;25.92;23.00;;;;;;;;;;4993631;28;20034;-71
2023/12/31 12:49:26;;;;;;;18.20;16.23;;;;;;;;;;4977991;28;20373;-70
2023/12/31 12:51:51;;;;;;;14.80;12.77;;;;;;;;;;4989540;28;20037;-70
2023/12/31 12:54:17;;;;;;;12.43;11.23;;;;;;;;;;4994340;28;20712;-71
2023/12/31 12:56:44;;;;;;;9.40;7.82;;;;;;;;;;4985054;28;20422;-69
2023/12/31 12:59:10;;;;;;;23.55;21.20;;;;;;;;;;4985478;28;20100;-69
2023/12/31 13:01:36;;;;;;;21.27;19.20;;;;;;;;;;4983664;28;20140;-70
2023/12/31 13:04:02;;;;;;;14.98;13.45;;;;;;;;;;4986709;28;20108;-68
2023/12/31 13:06:27;;;;;;;14.52;12.75;;;;;;;;;;4992040;28;20109;-69
2023/12/31 13:08:53;;;;;;;33.10;30.00;;;;;;;;;;4982970;28;20048;-69
2023/12/31 13:11:18;;;;;;;17.77;15.90;;;;;;;;;;4983135;28;20057;-70
2023/12/31 13:13:45;;;;;;;40.70;32.22;;;;;;;;;;4985355;28;20120;-68
2023/12/31 13:16:10;;;;;;;31.10;23.60;;;;;;;;;;4985530;28;20029;-69
2023/12/31 13:18:36;;;;;;;42.53;36.85;;;;;;;;;;4998687;28;20026;-70
2023/12/31 13:21:02;;;;;;;18.15;15.95;;;;;;;;;;4999249;28;20483;-68
2023/12/31 13:23:27;;;;;;;506.23;361.85;;;;;;;;;;4994625;28;20076;-69
2023/12/31 13:25:53;;;;;;;136.05;88.75;;;;;;;;;;4994329;28;20029;-68
2023/12/31 13:28:18;;;;;;;40.53;35.20;;;;;;;;;;4999547;28;20040;-68
2023/12/31 13:30:47;;;;;;;12.52;11.38;;;;;;;;;;5000595;28;20453;-69
2023/12/31 13:33:13;;;;;;;16.90;15.25;;;;;;;;;;4999557;28;20036;-70
2023/12/31 13:35:39;;;;;;;18.23;16.30;;;;;;;;;;4986675;28;20034;-69
2023/12/31 13:38:04;;;;;;;33.00;25.90;;;;;;;;;;4985526;28;20445;-70
2023/12/31 13:40:29;;;;;;;23.08;18.92;;;;;;;;;;4985762;28;20065;-70
2023/12/31 13:42:56;;;;;;;23.88;15.05;;;;;;;;;;4985475;28;20038;-68
2023/12/31 13:45:22;;;;;;;11.40;10.30;;;;;;;;;;4986324;28;21099;-69
2023/12/31 13:47:47;;;;;;;8.75;7.88;;;;;;;;;;4982026;28;20048;-70
2023/12/31 13:50:13;;;;;;;18.92;16.92;;;;;;;;;;4990038;28;20036;-69
2023/12/31 13:52:38;;;;;;;16.30;14.60;;;;;;;;;;4987853;28;20032;-68
2023/12/31 13:55:03;;;;;;;37.95;30.27;;;;;;;;;;4989200;28;20311;-67
2023/12/31 13:57:29;;;;;;;23.08;19.38;;;;;;;;;;5000922;28;20034;-69
2023/12/31 13:59:54;;;;;;;12.63;11.40;;;;;;;;;;5001837;28;20037;-69
2023/12/31 14:02:20;;;;;;;14.07;11.52;;;;;;;;;;5001917;28;20032;-70